sensor_id;sensor_type;location;lat;lon;timestamp;P1;durP1;ratioP1;P2;durP2;ratioP2
15946;SDS011;8072;52.554;7.966;2023-04-03T00:00:25;5.50;;;2.07;;
15946;SDS011;8072;52.554;7.966;2023-04-03T00:02:51;2.03;;;1.70;;
15946;SDS011;8072;52.554;7.966;2023-04-03T00:05:16;6.37;;;1.90;;
15946;SDS011;8072;52.554;7.966;2023-04-03T00:07:42;4.93;;;1.70;;
15946;SDS011;8072;52.554;7.966;2023-04-03T00:10:08;3.67;;;1.70;;
15946;SDS011;8072;52.554;7.966;2023-04-03T00:12:34;3.97;;;2.00;;
15946;SDS011;8072;52.554;7.966;2023-04-03T00:15:00;3.47;;;1.90;;
15946;SDS011;8072;52.554;7.966;2023-04-03T00:17:25;5.07;;;1.63;;
15946;SDS011;8072;52.554;7.966;2023-04-03T00:19:51;4.30;;;1.80;;
15946;SDS011;8072;52.554;7.966;2023-04-03T00:22:17;4.60;;;1.93;;
15946;SDS011;8072;52.554;7.966;2023-04-03T00:24:43;5.27;;;1.70;;
15946;SDS011;8072;52.554;7.966;2023-04-03T00:27:08;3.53;;;1.67;;
15946;SDS011;8072;52.554;7.966;2023-04-03T00:29:36;5.20;;;1.83;;
15946;SDS011;8072;52.554;7.966;2023-04-03T00:32:02;4.97;;;1.90;;
15946;SDS011;8072;52.554;7.966;2023-04-03T00:34:28;5.87;;;2.03;;
15946;SDS011;8072;52.554;7.966;2023-04-03T00:36:53;5.53;;;1.73;;
15946;SDS011;8072;52.554;7.966;2023-04-03T00:39:19;4.57;;;1.90;;
15946;SDS011;8072;52.554;7.966;2023-04-03T00:41:45;1.87;;;1.30;;
15946;SDS011;8072;52.554;7.966;2023-04-03T00:46:58;2.87;;;1.80;;
15946;SDS011;8072;52.554;7.966;2023-04-03T00:49:25;4.33;;;2.00;;
15946;SDS011;8072;52.554;7.966;2023-04-03T00:51:51;2.63;;;1.90;;
15946;SDS011;8072;52.554;7.966;2023-04-03T00:54:18;6.50;;;1.87;;
15946;SDS011;8072;52.554;7.966;2023-04-03T00:56:45;5.83;;;2.00;;
15946;SDS011;8072;52.554;7.966;2023-04-03T00:59:12;3.20;;;1.70;;
15946;SDS011;8072;52.554;7.966;2023-04-03T01:01:41;5.13;;;2.00;;
15946;SDS011;8072;52.554;7.966;2023-04-03T01:06:59;5.47;;;2.33;;
15946;SDS011;8072;52.554;7.966;2023-04-03T01:09:29;5.27;;;2.30;;
15946;SDS011;8072;52.554;7.966;2023-04-03T01:12:16;6.53;;;2.23;;
15946;SDS011;8072;52.554;7.966;2023-04-03T01:14:48;3.77;;;1.63;;
15946;SDS011;8072;52.554;7.966;2023-04-03T01:28:28;6.00;;;2.30;;
15946;SDS011;8072;52.554;7.966;2023-04-03T01:33:50;5.70;;;2.30;;
15946;SDS011;8072;52.554;7.966;2023-04-03T01:36:23;4.83;;;2.00;;
15946;SDS011;8072;52.554;7.966;2023-04-03T01:38:51;2.77;;;2.20;;
15946;SDS011;8072;52.554;7.966;2023-04-03T01:41:18;6.00;;;2.47;;
15946;SDS011;8072;52.554;7.966;2023-04-03T01:43:46;3.33;;;1.83;;
15946;SDS011;8072;52.554;7.966;2023-04-03T01:46:13;7.93;;;2.10;;
15946;SDS011;8072;52.554;7.966;2023-04-03T01:48:39;5.40;;;2.57;;
15946;SDS011;8072;52.554;7.966;2023-04-03T01:51:05;10.23;;;2.47;;
15946;SDS011;8072;52.554;7.966;2023-04-03T01:53:31;6.20;;;2.50;;
15946;SDS011;8072;52.554;7.966;2023-04-03T01:55:56;5.07;;;2.50;;
15946;SDS011;8072;52.554;7.966;2023-04-03T01:58:22;7.07;;;2.57;;
15946;SDS011;8072;52.554;7.966;2023-04-03T02:00:48;6.30;;;2.60;;
15946;SDS011;8072;52.554;7.966;2023-04-03T02:03:14;9.80;;;2.60;;
15946;SDS011;8072;52.554;7.966;2023-04-03T02:05:40;5.40;;;2.60;;
15946;SDS011;8072;52.554;7.966;2023-04-03T02:08:06;8.17;;;2.50;;
15946;SDS011;8072;52.554;7.966;2023-04-03T02:10:32;6.00;;;2.80;;
15946;SDS011;8072;52.554;7.966;2023-04-03T02:12:57;7.37;;;2.40;;
15946;SDS011;8072;52.554;7.966;2023-04-03T02:15:23;10.77;;;2.97;;
15946;SDS011;8072;52.554;7.966;2023-04-03T02:17:49;6.37;;;2.70;;
15946;SDS011;8072;52.554;7.966;2023-04-03T02:20:15;4.47;;;2.20;;
15946;SDS011;8072;52.554;7.966;2023-04-03T02:22:41;3.53;;;1.70;;
15946;SDS011;8072;52.554;7.966;2023-04-03T02:25:07;3.80;;;2.23;;
15946;SDS011;8072;52.554;7.966;2023-04-03T02:27:34;5.53;;;2.47;;
15946;SDS011;8072;52.554;7.966;2023-04-03T02:30:01;5.63;;;2.10;;
15946;SDS011;8072;52.554;7.966;2023-04-03T02:32:28;3.03;;;2.10;;
15946;SDS011;8072;52.554;7.966;2023-04-03T02:34:54;3.93;;;2.13;;
15946;SDS011;8072;52.554;7.966;2023-04-03T02:37:20;6.37;;;2.10;;
15946;SDS011;8072;52.554;7.966;2023-04-03T02:39:46;2.67;;;1.80;;
15946;SDS011;8072;52.554;7.966;2023-04-03T02:42:12;6.23;;;2.00;;
15946;SDS011;8072;52.554;7.966;2023-04-03T02:44:38;4.50;;;1.90;;
15946;SDS011;8072;52.554;7.966;2023-04-03T02:47:04;4.20;;;2.00;;
15946;SDS011;8072;52.554;7.966;2023-04-03T02:49:30;4.43;;;1.90;;
15946;SDS011;8072;52.554;7.966;2023-04-03T02:51:56;5.87;;;2.60;;
15946;SDS011;8072;52.554;7.966;2023-04-03T02:54:23;4.60;;;2.10;;
15946;SDS011;8072;52.554;7.966;2023-04-03T02:56:53;8.00;;;2.27;;
15946;SDS011;8072;52.554;7.966;2023-04-03T02:59:18;5.87;;;2.40;;
15946;SDS011;8072;52.554;7.966;2023-04-03T03:01:44;4.53;;;1.90;;
15946;SDS011;8072;52.554;7.966;2023-04-03T03:04:10;8.07;;;2.30;;
15946;SDS011;8072;52.554;7.966;2023-04-03T03:06:36;5.80;;;2.50;;
15946;SDS011;8072;52.554;7.966;2023-04-03T03:09:04;6.03;;;1.87;;
15946;SDS011;8072;52.554;7.966;2023-04-03T03:11:31;5.43;;;1.87;;
15946;SDS011;8072;52.554;7.966;2023-04-03T03:13:56;4.20;;;1.80;;
15946;SDS011;8072;52.554;7.966;2023-04-03T03:16:23;4.47;;;1.97;;
15946;SDS011;8072;52.554;7.966;2023-04-03T03:18:49;4.13;;;2.00;;
15946;SDS011;8072;52.554;7.966;2023-04-03T03:21:15;3.33;;;1.90;;
15946;SDS011;8072;52.554;7.966;2023-04-03T03:23:40;3.80;;;2.30;;
15946;SDS011;8072;52.554;7.966;2023-04-03T03:26:07;3.57;;;1.93;;
15946;SDS011;8072;52.554;7.966;2023-04-03T03:28:34;3.30;;;1.90;;
15946;SDS011;8072;52.554;7.966;2023-04-03T03:31:01;7.43;;;2.37;;
15946;SDS011;8072;52.554;7.966;2023-04-03T03:33:27;7.10;;;2.67;;
15946;SDS011;8072;52.554;7.966;2023-04-03T03:35:53;4.93;;;2.20;;
15946;SDS011;8072;52.554;7.966;2023-04-03T03:38:19;2.63;;;2.00;;
15946;SDS011;8072;52.554;7.966;2023-04-03T03:40:49;3.77;;;2.17;;
15946;SDS011;8072;52.554;7.966;2023-04-03T03:43:18;4.50;;;2.50;;
15946;SDS011;8072;52.554;7.966;2023-04-03T03:45:44;7.80;;;1.93;;
15946;SDS011;8072;52.554;7.966;2023-04-03T03:48:11;2.60;;;1.83;;
15946;SDS011;8072;52.554;7.966;2023-04-03T03:50:37;4.53;;;2.03;;
15946;SDS011;8072;52.554;7.966;2023-04-03T03:53:03;3.03;;;1.80;;
15946;SDS011;8072;52.554;7.966;2023-04-03T03:55:29;6.50;;;2.17;;
15946;SDS011;8072;52.554;7.966;2023-04-03T03:57:55;5.03;;;2.07;;
15946;SDS011;8072;52.554;7.966;2023-04-03T04:00:21;5.20;;;2.27;;
15946;SDS011;8072;52.554;7.966;2023-04-03T04:02:47;9.40;;;2.50;;
15946;SDS011;8072;52.554;7.966;2023-04-03T04:05:12;4.40;;;1.97;;
15946;SDS011;8072;52.554;7.966;2023-04-03T04:07:39;5.83;;;2.37;;
15946;SDS011;8072;52.554;7.966;2023-04-03T04:10:07;6.77;;;2.17;;
15946;SDS011;8072;52.554;7.966;2023-04-03T04:12:33;3.63;;;2.10;;
15946;SDS011;8072;52.554;7.966;2023-04-03T04:15:00;6.33;;;2.67;;
15946;SDS011;8072;52.554;7.966;2023-04-03T04:17:26;3.00;;;2.13;;
15946;SDS011;8072;52.554;7.966;2023-04-03T04:19:52;3.83;;;2.17;;
15946;SDS011;8072;52.554;7.966;2023-04-03T04:22:18;4.30;;;2.23;;
15946;SDS011;8072;52.554;7.966;2023-04-03T04:24:43;4.67;;;2.00;;
15946;SDS011;8072;52.554;7.966;2023-04-03T04:27:10;3.27;;;2.17;;
15946;SDS011;8072;52.554;7.966;2023-04-03T04:29:36;3.63;;;2.43;;
15946;SDS011;8072;52.554;7.966;2023-04-03T04:32:05;3.83;;;2.17;;
15946;SDS011;8072;52.554;7.966;2023-04-03T04:34:30;3.63;;;2.00;;
15946;SDS011;8072;52.554;7.966;2023-04-03T04:36:57;2.97;;;2.10;;
15946;SDS011;8072;52.554;7.966;2023-04-03T04:39:22;6.53;;;2.30;;
15946;SDS011;8072;52.554;7.966;2023-04-03T04:41:48;2.63;;;1.80;;
15946;SDS011;8072;52.554;7.966;2023-04-03T04:44:15;1.97;;;1.80;;
15946;SDS011;8072;52.554;7.966;2023-04-03T04:46:41;6.93;;;2.17;;
15946;SDS011;8072;52.554;7.966;2023-04-03T04:49:07;5.57;;;2.50;;
15946;SDS011;8072;52.554;7.966;2023-04-03T04:51:33;4.33;;;2.00;;
15946;SDS011;8072;52.554;7.966;2023-04-03T04:53:58;3.53;;;2.00;;
15946;SDS011;8072;52.554;7.966;2023-04-03T04:56:24;2.53;;;1.90;;
15946;SDS011;8072;52.554;7.966;2023-04-03T04:58:50;4.63;;;2.10;;
15946;SDS011;8072;52.554;7.966;2023-04-03T05:01:16;4.03;;;2.00;;
15946;SDS011;8072;52.554;7.966;2023-04-03T05:03:42;3.90;;;2.07;;
15946;SDS011;8072;52.554;7.966;2023-04-03T05:06:08;5.13;;;2.00;;
15946;SDS011;8072;52.554;7.966;2023-04-03T05:08:33;5.83;;;1.93;;
15946;SDS011;8072;52.554;7.966;2023-04-03T05:10:59;4.97;;;2.07;;
15946;SDS011;8072;52.554;7.966;2023-04-03T05:13:25;6.80;;;2.00;;
15946;SDS011;8072;52.554;7.966;2023-04-03T05:15:51;4.30;;;2.40;;
15946;SDS011;8072;52.554;7.966;2023-04-03T05:18:17;5.70;;;2.20;;
15946;SDS011;8072;52.554;7.966;2023-04-03T05:20:42;5.53;;;2.20;;
15946;SDS011;8072;52.554;7.966;2023-04-03T05:23:09;8.77;;;2.70;;
15946;SDS011;8072;52.554;7.966;2023-04-03T05:25:39;8.27;;;2.87;;
15946;SDS011;8072;52.554;7.966;2023-04-03T05:28:05;4.30;;;2.53;;
15946;SDS011;8072;52.554;7.966;2023-04-03T05:30:32;7.23;;;2.47;;
15946;SDS011;8072;52.554;7.966;2023-04-03T05:32:58;9.47;;;2.77;;
15946;SDS011;8072;52.554;7.966;2023-04-03T05:35:24;7.50;;;2.70;;
15946;SDS011;8072;52.554;7.966;2023-04-03T05:37:50;3.70;;;2.10;;
15946;SDS011;8072;52.554;7.966;2023-04-03T05:40:16;2.63;;;2.00;;
15946;SDS011;8072;52.554;7.966;2023-04-03T05:42:41;3.43;;;2.30;;
15946;SDS011;8072;52.554;7.966;2023-04-03T05:45:08;5.80;;;3.43;;
15946;SDS011;8072;52.554;7.966;2023-04-03T05:47:34;6.00;;;2.60;;
15946;SDS011;8072;52.554;7.966;2023-04-03T05:50:01;3.50;;;2.47;;
15946;SDS011;8072;52.554;7.966;2023-04-03T05:52:28;5.07;;;2.00;;
15946;SDS011;8072;52.554;7.966;2023-04-03T05:54:57;4.37;;;2.50;;
15946;SDS011;8072;52.554;7.966;2023-04-03T05:57:23;4.87;;;2.23;;
15946;SDS011;8072;52.554;7.966;2023-04-03T05:59:49;5.40;;;2.33;;
15946;SDS011;8072;52.554;7.966;2023-04-03T06:02:16;6.63;;;2.47;;
15946;SDS011;8072;52.554;7.966;2023-04-03T06:04:44;4.10;;;2.57;;
15946;SDS011;8072;52.554;7.966;2023-04-03T06:07:12;4.60;;;2.40;;
15946;SDS011;8072;52.554;7.966;2023-04-03T06:09:40;3.00;;;2.10;;
15946;SDS011;8072;52.554;7.966;2023-04-03T06:12:07;4.30;;;1.93;;
15946;SDS011;8072;52.554;7.966;2023-04-03T06:14:34;3.40;;;2.20;;
15946;SDS011;8072;52.554;7.966;2023-04-03T06:17:00;6.63;;;2.17;;
15946;SDS011;8072;52.554;7.966;2023-04-03T06:19:27;4.13;;;2.37;;
15946;SDS011;8072;52.554;7.966;2023-04-03T06:21:53;7.97;;;2.13;;
15946;SDS011;8072;52.554;7.966;2023-04-03T06:24:19;4.07;;;2.30;;
15946;SDS011;8072;52.554;7.966;2023-04-03T06:26:46;7.70;;;2.30;;
15946;SDS011;8072;52.554;7.966;2023-04-03T06:29:13;5.90;;;2.03;;
15946;SDS011;8072;52.554;7.966;2023-04-03T06:31:39;7.77;;;2.60;;
15946;SDS011;8072;52.554;7.966;2023-04-03T06:34:06;6.60;;;2.00;;
15946;SDS011;8072;52.554;7.966;2023-04-03T06:36:32;5.40;;;2.00;;
15946;SDS011;8072;52.554;7.966;2023-04-03T06:39:00;3.57;;;2.03;;
15946;SDS011;8072;52.554;7.966;2023-04-03T06:41:28;3.23;;;1.80;;
15946;SDS011;8072;52.554;7.966;2023-04-03T06:43:54;3.83;;;2.13;;
15946;SDS011;8072;52.554;7.966;2023-04-03T06:46:22;6.80;;;2.17;;
15946;SDS011;8072;52.554;7.966;2023-04-03T06:48:49;5.10;;;2.33;;
15946;SDS011;8072;52.554;7.966;2023-04-03T06:51:22;5.17;;;2.33;;
15946;SDS011;8072;52.554;7.966;2023-04-03T06:53:50;7.83;;;2.17;;
15946;SDS011;8072;52.554;7.966;2023-04-03T06:56:17;4.63;;;2.33;;
15946;SDS011;8072;52.554;7.966;2023-04-03T06:58:44;5.27;;;1.90;;
15946;SDS011;8072;52.554;7.966;2023-04-03T07:01:12;6.33;;;2.20;;
15946;SDS011;8072;52.554;7.966;2023-04-03T07:03:39;4.30;;;2.00;;
15946;SDS011;8072;52.554;7.966;2023-04-03T07:06:06;4.57;;;2.10;;
15946;SDS011;8072;52.554;7.966;2023-04-03T07:08:33;3.00;;;1.90;;
15946;SDS011;8072;52.554;7.966;2023-04-03T07:11:00;3.70;;;2.10;;
15946;SDS011;8072;52.554;7.966;2023-04-03T07:13:26;4.50;;;2.40;;
15946;SDS011;8072;52.554;7.966;2023-04-03T07:15:52;2.73;;;1.70;;
15946;SDS011;8072;52.554;7.966;2023-04-03T07:18:18;3.93;;;1.97;;
15946;SDS011;8072;52.554;7.966;2023-04-03T07:20:44;4.50;;;1.80;;
15946;SDS011;8072;52.554;7.966;2023-04-03T07:23:10;5.37;;;2.00;;
15946;SDS011;8072;52.554;7.966;2023-04-03T07:25:36;3.30;;;2.03;;
15946;SDS011;8072;52.554;7.966;2023-04-03T07:28:07;2.73;;;2.03;;
15946;SDS011;8072;52.554;7.966;2023-04-03T07:30:33;5.07;;;2.00;;
15946;SDS011;8072;52.554;7.966;2023-04-03T07:32:59;8.33;;;2.00;;
15946;SDS011;8072;52.554;7.966;2023-04-03T07:35:24;4.97;;;1.73;;
15946;SDS011;8072;52.554;7.966;2023-04-03T07:37:50;4.77;;;2.33;;
15946;SDS011;8072;52.554;7.966;2023-04-03T07:40:16;4.23;;;1.90;;
15946;SDS011;8072;52.554;7.966;2023-04-03T07:42:42;4.53;;;1.37;;
15946;SDS011;8072;52.554;7.966;2023-04-03T07:45:08;3.03;;;1.50;;
15946;SDS011;8072;52.554;7.966;2023-04-03T07:47:34;7.37;;;1.67;;
15946;SDS011;8072;52.554;7.966;2023-04-03T07:50:00;3.10;;;1.77;;
15946;SDS011;8072;52.554;7.966;2023-04-03T07:52:26;4.00;;;1.80;;
15946;SDS011;8072;52.554;7.966;2023-04-03T07:54:51;5.07;;;1.93;;
15946;SDS011;8072;52.554;7.966;2023-04-03T07:57:17;6.13;;;1.90;;
15946;SDS011;8072;52.554;7.966;2023-04-03T07:59:43;3.20;;;1.30;;
15946;SDS011;8072;52.554;7.966;2023-04-03T08:02:09;10.23;;;1.93;;
15946;SDS011;8072;52.554;7.966;2023-04-03T08:04:35;4.07;;;1.50;;
15946;SDS011;8072;52.554;7.966;2023-04-03T08:07:01;3.50;;;1.60;;
15946;SDS011;8072;52.554;7.966;2023-04-03T08:09:26;5.30;;;1.70;;
15946;SDS011;8072;52.554;7.966;2023-04-03T08:11:52;3.50;;;1.47;;
15946;SDS011;8072;52.554;7.966;2023-04-03T08:14:18;2.87;;;1.50;;
15946;SDS011;8072;52.554;7.966;2023-04-03T08:16:45;3.73;;;1.60;;
15946;SDS011;8072;52.554;7.966;2023-04-03T08:19:12;5.67;;;1.50;;
15946;SDS011;8072;52.554;7.966;2023-04-03T08:21:39;2.77;;;1.60;;
15946;SDS011;8072;52.554;7.966;2023-04-03T08:24:06;3.33;;;1.47;;
15946;SDS011;8072;52.554;7.966;2023-04-03T08:26:33;5.60;;;1.80;;
15946;SDS011;8072;52.554;7.966;2023-04-03T08:28:59;4.47;;;1.77;;
15946;SDS011;8072;52.554;7.966;2023-04-03T08:31:25;4.77;;;1.60;;
15946;SDS011;8072;52.554;7.966;2023-04-03T08:33:51;5.47;;;1.70;;
15946;SDS011;8072;52.554;7.966;2023-04-03T08:36:21;3.27;;;1.57;;
15946;SDS011;8072;52.554;7.966;2023-04-03T08:38:49;2.37;;;1.60;;
15946;SDS011;8072;52.554;7.966;2023-04-03T08:52:19;5.67;;;1.40;;
15946;SDS011;8072;52.554;7.966;2023-04-03T08:55:00;3.43;;;1.63;;
15946;SDS011;8072;52.554;7.966;2023-04-03T08:57:35;2.40;;;1.50;;
15946;SDS011;8072;52.554;7.966;2023-04-03T09:00:06;4.13;;;1.40;;
15946;SDS011;8072;52.554;7.966;2023-04-03T09:02:42;2.27;;;1.30;;
15946;SDS011;8072;52.554;7.966;2023-04-03T09:07:56;2.53;;;1.40;;
15946;SDS011;8072;52.554;7.966;2023-04-03T09:10:28;2.47;;;1.57;;
15946;SDS011;8072;52.554;7.966;2023-04-03T09:13:00;2.13;;;1.50;;
15946;SDS011;8072;52.554;7.966;2023-04-03T09:15:46;5.60;;;1.30;;
15946;SDS011;8072;52.554;7.966;2023-04-03T09:18:14;4.23;;;1.33;;
15946;SDS011;8072;52.554;7.966;2023-04-03T09:26:12;3.23;;;1.30;;
15946;SDS011;8072;52.554;7.966;2023-04-03T09:29:00;3.93;;;1.50;;
15946;SDS011;8072;52.554;7.966;2023-04-03T09:31:36;4.00;;;1.30;;
15946;SDS011;8072;52.554;7.966;2023-04-03T09:34:09;4.70;;;1.60;;
15946;SDS011;8072;52.554;7.966;2023-04-03T09:36:53;5.33;;;1.40;;
15946;SDS011;8072;52.554;7.966;2023-04-03T09:39:24;2.60;;;1.20;;
15946;SDS011;8072;52.554;7.966;2023-04-03T09:41:55;3.27;;;1.47;;
15946;SDS011;8072;52.554;7.966;2023-04-03T09:46:57;4.67;;;1.37;;
15946;SDS011;8072;52.554;7.966;2023-04-03T09:49:23;7.20;;;1.50;;
15946;SDS011;8072;52.554;7.966;2023-04-03T09:51:49;2.70;;;1.43;;
15946;SDS011;8072;52.554;7.966;2023-04-03T09:54:37;5.10;;;1.67;;
15946;SDS011;8072;52.554;7.966;2023-04-03T09:57:12;2.87;;;1.60;;
15946;SDS011;8072;52.554;7.966;2023-04-03T09:59:41;2.90;;;1.50;;
15946;SDS011;8072;52.554;7.966;2023-04-03T10:02:40;4.73;;;1.30;;
15946;SDS011;8072;52.554;7.966;2023-04-03T10:10:39;3.20;;;1.33;;
15946;SDS011;8072;52.554;7.966;2023-04-03T10:16:07;2.67;;;1.30;;
15946;SDS011;8072;52.554;7.966;2023-04-03T10:18:41;2.53;;;1.23;;
15946;SDS011;8072;52.554;7.966;2023-04-03T10:32:14;2.70;;;1.20;;
15946;SDS011;8072;52.554;7.966;2023-04-03T10:34:50;3.13;;;1.07;;
15946;SDS011;8072;52.554;7.966;2023-04-03T10:41:10;6.73;;;1.50;;
15946;SDS011;8072;52.554;7.966;2023-04-03T10:46:47;4.23;;;1.40;;
15946;SDS011;8072;52.554;7.966;2023-04-03T10:55:00;3.83;;;1.60;;
15946;SDS011;8072;52.554;7.966;2023-04-03T10:57:44;2.73;;;1.17;;
15946;SDS011;8072;52.554;7.966;2023-04-03T11:00:15;3.73;;;1.30;;
15946;SDS011;8072;52.554;7.966;2023-04-03T11:02:56;3.57;;;1.23;;
15946;SDS011;8072;52.554;7.966;2023-04-03T11:07:55;4.00;;;1.53;;
15946;SDS011;8072;52.554;7.966;2023-04-03T11:10:44;1.93;;;1.20;;
15946;SDS011;8072;52.554;7.966;2023-04-03T11:13:15;3.67;;;1.40;;
15946;SDS011;8072;52.554;7.966;2023-04-03T11:15:46;4.27;;;1.20;;
15946;SDS011;8072;52.554;7.966;2023-04-03T11:18:17;3.27;;;1.37;;
15946;SDS011;8072;52.554;7.966;2023-04-03T11:20:51;2.67;;;1.20;;
15946;SDS011;8072;52.554;7.966;2023-04-03T11:23:29;1.80;;;1.50;;
15946;SDS011;8072;52.554;7.966;2023-04-03T11:26:08;2.53;;;1.40;;
15946;SDS011;8072;52.554;7.966;2023-04-03T11:28:39;2.63;;;1.20;;
15946;SDS011;8072;52.554;7.966;2023-04-03T11:36:32;5.23;;;1.50;;
15946;SDS011;8072;52.554;7.966;2023-04-03T11:39:25;2.43;;;1.13;;
15946;SDS011;8072;52.554;7.966;2023-04-03T11:47:55;4.83;;;1.33;;
15946;SDS011;8072;52.554;7.966;2023-04-03T12:05:49;5.67;;;1.10;;
15946;SDS011;8072;52.554;7.966;2023-04-03T12:08:16;2.80;;;1.20;;
15946;SDS011;8072;52.554;7.966;2023-04-03T12:13:37;3.27;;;1.20;;
15946;SDS011;8072;52.554;7.966;2023-04-03T12:19:27;2.67;;;1.03;;
15946;SDS011;8072;52.554;7.966;2023-04-03T12:29:46;3.40;;;1.20;;
15946;SDS011;8072;52.554;7.966;2023-04-03T12:40:15;2.30;;;0.97;;
15946;SDS011;8072;52.554;7.966;2023-04-03T12:45:43;5.90;;;2.13;;
15946;SDS011;8072;52.554;7.966;2023-04-03T12:48:24;3.43;;;1.00;;
15946;SDS011;8072;52.554;7.966;2023-04-03T12:50:52;3.73;;;1.13;;
15946;SDS011;8072;52.554;7.966;2023-04-03T12:53:41;3.23;;;1.23;;
15946;SDS011;8072;52.554;7.966;2023-04-03T12:58:54;1.80;;;1.20;;
15946;SDS011;8072;52.554;7.966;2023-04-03T13:01:24;2.33;;;1.10;;
15946;SDS011;8072;52.554;7.966;2023-04-03T13:03:54;2.07;;;1.17;;
15946;SDS011;8072;52.554;7.966;2023-04-03T13:06:39;1.93;;;1.00;;
15946;SDS011;8072;52.554;7.966;2023-04-03T13:09:17;2.23;;;0.80;;
15946;SDS011;8072;52.554;7.966;2023-04-03T13:11:51;2.47;;;1.10;;
15946;SDS011;8072;52.554;7.966;2023-04-03T13:14:28;5.40;;;1.20;;
15946;SDS011;8072;52.554;7.966;2023-04-03T13:17:17;1.30;;;1.00;;
15946;SDS011;8072;52.554;7.966;2023-04-03T13:19:43;1.83;;;0.90;;
15946;SDS011;8072;52.554;7.966;2023-04-03T13:22:20;3.23;;;1.27;;
15946;SDS011;8072;52.554;7.966;2023-04-03T13:25:05;2.13;;;1.10;;
15946;SDS011;8072;52.554;7.966;2023-04-03T13:27:34;2.53;;;1.43;;
15946;SDS011;8072;52.554;7.966;2023-04-03T13:30:02;3.20;;;1.20;;
15946;SDS011;8072;52.554;7.966;2023-04-03T13:32:30;2.07;;;1.03;;
15946;SDS011;8072;52.554;7.966;2023-04-03T13:34:57;3.00;;;1.20;;
15946;SDS011;8072;52.554;7.966;2023-04-03T13:37:28;2.17;;;1.20;;
15946;SDS011;8072;52.554;7.966;2023-04-03T13:40:09;2.50;;;1.17;;
15946;SDS011;8072;52.554;7.966;2023-04-03T13:42:37;4.27;;;1.70;;
15946;SDS011;8072;52.554;7.966;2023-04-03T13:45:10;1.83;;;0.90;;
15946;SDS011;8072;52.554;7.966;2023-04-03T13:47:38;2.97;;;1.20;;
15946;SDS011;8072;52.554;7.966;2023-04-03T13:52:45;1.77;;;1.20;;
15946;SDS011;8072;52.554;7.966;2023-04-03T13:57:59;2.03;;;1.10;;
15946;SDS011;8072;52.554;7.966;2023-04-03T14:01:01;3.00;;;1.30;;
15946;SDS011;8072;52.554;7.966;2023-04-03T14:03:31;2.63;;;1.00;;
15946;SDS011;8072;52.554;7.966;2023-04-03T14:06:06;2.47;;;0.97;;
15946;SDS011;8072;52.554;7.966;2023-04-03T14:08:35;2.00;;;1.20;;
15946;SDS011;8072;52.554;7.966;2023-04-03T14:11:01;2.63;;;1.00;;
15946;SDS011;8072;52.554;7.966;2023-04-03T14:13:29;3.57;;;1.40;;
15946;SDS011;8072;52.554;7.966;2023-04-03T14:15:55;2.03;;;1.40;;
15946;SDS011;8072;52.554;7.966;2023-04-03T14:18:21;1.47;;;1.00;;
15946;SDS011;8072;52.554;7.966;2023-04-03T14:20:47;3.17;;;1.50;;
15946;SDS011;8072;52.554;7.966;2023-04-03T14:23:13;5.80;;;1.90;;
15946;SDS011;8072;52.554;7.966;2023-04-03T14:25:40;2.60;;;0.90;;
15946;SDS011;8072;52.554;7.966;2023-04-03T14:28:14;3.87;;;1.00;;
15946;SDS011;8072;52.554;7.966;2023-04-03T14:30:46;2.17;;;1.53;;
15946;SDS011;8072;52.554;7.966;2023-04-03T14:33:14;2.40;;;1.30;;
15946;SDS011;8072;52.554;7.966;2023-04-03T14:35:42;3.77;;;1.07;;
15946;SDS011;8072;52.554;7.966;2023-04-03T14:38:12;3.57;;;1.70;;
15946;SDS011;8072;52.554;7.966;2023-04-03T14:41:03;2.80;;;1.33;;
15946;SDS011;8072;52.554;7.966;2023-04-03T14:43:30;3.13;;;1.50;;
15946;SDS011;8072;52.554;7.966;2023-04-03T14:45:55;2.10;;;1.40;;
15946;SDS011;8072;52.554;7.966;2023-04-03T14:48:22;2.10;;;1.03;;
15946;SDS011;8072;52.554;7.966;2023-04-03T14:50:51;1.93;;;1.20;;
15946;SDS011;8072;52.554;7.966;2023-04-03T14:53:18;3.03;;;1.17;;
15946;SDS011;8072;52.554;7.966;2023-04-03T14:55:51;1.53;;;1.10;;
15946;SDS011;8072;52.554;7.966;2023-04-03T14:58:19;3.57;;;1.77;;
15946;SDS011;8072;52.554;7.966;2023-04-03T15:00:45;2.27;;;1.23;;
15946;SDS011;8072;52.554;7.966;2023-04-03T15:03:15;1.80;;;1.00;;
15946;SDS011;8072;52.554;7.966;2023-04-03T15:05:44;2.73;;;1.03;;
15946;SDS011;8072;52.554;7.966;2023-04-03T15:08:18;1.30;;;0.97;;
15946;SDS011;8072;52.554;7.966;2023-04-03T15:10:49;2.10;;;1.40;;
15946;SDS011;8072;52.554;7.966;2023-04-03T15:13:17;2.50;;;1.37;;
15946;SDS011;8072;52.554;7.966;2023-04-03T15:15:43;2.07;;;1.20;;
15946;SDS011;8072;52.554;7.966;2023-04-03T15:18:14;1.43;;;1.20;;
15946;SDS011;8072;52.554;7.966;2023-04-03T15:20:42;2.27;;;1.30;;
15946;SDS011;8072;52.554;7.966;2023-04-03T15:23:09;1.53;;;1.10;;
15946;SDS011;8072;52.554;7.966;2023-04-03T15:25:37;3.80;;;1.40;;
15946;SDS011;8072;52.554;7.966;2023-04-03T15:28:04;2.43;;;1.33;;
15946;SDS011;8072;52.554;7.966;2023-04-03T15:30:31;3.30;;;1.47;;
15946;SDS011;8072;52.554;7.966;2023-04-03T15:32:56;2.40;;;1.07;;
15946;SDS011;8072;52.554;7.966;2023-04-03T15:35:22;3.43;;;1.20;;
15946;SDS011;8072;52.554;7.966;2023-04-03T15:37:53;1.07;;;0.90;;
15946;SDS011;8072;52.554;7.966;2023-04-03T15:40:19;3.97;;;1.30;;
15946;SDS011;8072;52.554;7.966;2023-04-03T15:42:45;5.43;;;1.33;;
15946;SDS011;8072;52.554;7.966;2023-04-03T15:45:11;2.67;;;1.40;;
15946;SDS011;8072;52.554;7.966;2023-04-03T15:47:37;2.30;;;1.17;;
15946;SDS011;8072;52.554;7.966;2023-04-03T15:50:03;3.90;;;1.20;;
15946;SDS011;8072;52.554;7.966;2023-04-03T15:52:31;1.60;;;1.30;;
15946;SDS011;8072;52.554;7.966;2023-04-03T15:54:57;4.90;;;1.30;;
15946;SDS011;8072;52.554;7.966;2023-04-03T15:57:23;2.73;;;1.43;;
15946;SDS011;8072;52.554;7.966;2023-04-03T15:59:52;2.93;;;1.57;;
15946;SDS011;8072;52.554;7.966;2023-04-03T16:02:18;4.07;;;1.50;;
15946;SDS011;8072;52.554;7.966;2023-04-03T16:04:44;3.07;;;1.50;;
15946;SDS011;8072;52.554;7.966;2023-04-03T16:07:10;3.57;;;1.50;;
15946;SDS011;8072;52.554;7.966;2023-04-03T16:09:38;2.97;;;1.40;;
15946;SDS011;8072;52.554;7.966;2023-04-03T16:12:05;2.47;;;1.50;;
15946;SDS011;8072;52.554;7.966;2023-04-03T16:14:31;2.07;;;1.43;;
15946;SDS011;8072;52.554;7.966;2023-04-03T16:16:57;1.90;;;1.20;;
15946;SDS011;8072;52.554;7.966;2023-04-03T16:19:24;3.07;;;1.30;;
15946;SDS011;8072;52.554;7.966;2023-04-03T16:21:49;3.00;;;1.60;;
15946;SDS011;8072;52.554;7.966;2023-04-03T16:24:15;2.27;;;1.50;;
15946;SDS011;8072;52.554;7.966;2023-04-03T16:26:41;2.87;;;1.30;;
15946;SDS011;8072;52.554;7.966;2023-04-03T16:29:06;2.27;;;1.50;;
15946;SDS011;8072;52.554;7.966;2023-04-03T16:31:33;2.53;;;1.57;;
15946;SDS011;8072;52.554;7.966;2023-04-03T16:34:00;1.87;;;1.50;;
15946;SDS011;8072;52.554;7.966;2023-04-03T16:36:26;1.90;;;1.20;;
15946;SDS011;8072;52.554;7.966;2023-04-03T16:38:52;2.87;;;1.50;;
15946;SDS011;8072;52.554;7.966;2023-04-03T16:41:17;2.63;;;1.40;;
15946;SDS011;8072;52.554;7.966;2023-04-03T16:43:43;2.33;;;1.23;;
15946;SDS011;8072;52.554;7.966;2023-04-03T16:46:09;2.67;;;1.47;;
15946;SDS011;8072;52.554;7.966;2023-04-03T16:48:35;1.70;;;1.37;;
15946;SDS011;8072;52.554;7.966;2023-04-03T16:51:01;3.90;;;1.53;;
15946;SDS011;8072;52.554;7.966;2023-04-03T16:53:27;2.53;;;1.40;;
15946;SDS011;8072;52.554;7.966;2023-04-03T16:55:53;4.63;;;1.47;;
15946;SDS011;8072;52.554;7.966;2023-04-03T16:58:19;2.60;;;1.57;;
15946;SDS011;8072;52.554;7.966;2023-04-03T17:00:46;1.87;;;1.50;;
15946;SDS011;8072;52.554;7.966;2023-04-03T17:03:12;2.43;;;1.50;;
15946;SDS011;8072;52.554;7.966;2023-04-03T17:05:38;4.33;;;1.70;;
15946;SDS011;8072;52.554;7.966;2023-04-03T17:08:03;1.97;;;1.63;;
15946;SDS011;8072;52.554;7.966;2023-04-03T17:10:29;1.50;;;1.40;;
15946;SDS011;8072;52.554;7.966;2023-04-03T17:12:55;2.20;;;1.37;;
15946;SDS011;8072;52.554;7.966;2023-04-03T17:15:21;3.47;;;1.60;;
15946;SDS011;8072;52.554;7.966;2023-04-03T17:17:48;3.60;;;1.70;;
15946;SDS011;8072;52.554;7.966;2023-04-03T17:20:16;2.63;;;1.60;;
15946;SDS011;8072;52.554;7.966;2023-04-03T17:22:42;3.17;;;1.70;;